Time;durP1;ratioP1;P1;durP2;ratioP2;P2;SDS_P1;SDS_P2;PMS_P1;PMS_P2;Temp;Humidity;BMP_temperature;BMP_pressure;BME280_temperature;BME280_humidity;BME280_pressure;Samples;Min_cycle;Max_cycle;Signal;HPM_P1;HPM_P2
2022/07/13 00:01:34;;;;;;;;;;;;;;;28.99;32.98;94910.81;4990660;28;7475;-62
2022/07/13 00:04:02;;;;;;;;;;;;;;;28.98;33.48;94908.56;4993785;28;8993;-62
2022/07/13 00:06:31;;;;;;;;;;;;;;;28.97;33.49;94909.84;4992351;28;7057;-62
2022/07/13 00:09:02;;;;;;;;;;;;;;;28.98;33.19;94903.78;4999774;28;7090;-62
2022/07/13 00:11:28;;;;;;;;;;;;;;;28.96;33.49;94906.34;4994803;28;7000;-62
2022/07/13 00:13:54;;;;;;;;;;;;;;;28.97;33.36;94905.03;4996977;28;7258;-62
2022/07/13 00:16:22;;;;;;;;;;;;;;;28.98;33.65;94905.81;5010792;28;6978;-62
2022/07/13 00:18:52;;;;;;;;;;;;;;;28.98;33.17;94903.03;5000281;28;7097;-62
2022/07/13 00:21:24;;;;;;;;;;;;;;;28.98;33.21;94889.94;4992760;28;7101;-62
2022/07/13 00:23:50;;;;;;;;;;;;;;;28.98;33.73;94903.03;4989905;28;7093;-62
2022/07/13 00:26:28;;;;;;;;;;;;;;;28.98;33.42;94897.50;5002871;28;7039;-62
2022/07/13 00:28:54;;;;;;;;;;;;;;;28.97;33.08;94913.34;4982463;28;7272;-62
2022/07/13 00:31:20;;;;;;;;;;;;;;;28.95;33.69;94896.50;4996140;28;7344;-62
2022/07/13 00:33:46;;;;;;;;;;;;;;;28.95;32.98;94895.75;4988147;28;9151;-62
2022/07/13 00:36:12;;;;;;;;;;;;;;;28.96;33.93;94897.28;4986406;28;8742;-62
2022/07/13 00:38:38;;;;;;;;;;;;;;;28.94;33.60;94897.78;4998458;28;7336;-62
2022/07/13 00:41:09;;;;;;;;;;;;;;;28.93;33.39;94890.75;4985194;28;7363;-62
2022/07/13 00:43:34;;;;;;;;;;;;;;;28.92;33.44;94889.25;4977924;28;7912;-62
2022/07/13 00:46:00;;;;;;;;;;;;;;;28.92;33.84;94886.50;4986257;28;6993;-62
2022/07/13 00:48:27;;;;;;;;;;;;;;;28.92;33.60;94888.50;4995500;28;9527;-62
2022/07/13 00:50:54;;;;;;;;;;;;;;;28.90;33.59;94888.28;4997488;28;7056;-62
2022/07/13 00:53:22;;;;;;;;;;;;;;;28.91;34.09;94884.97;4988390;28;8191;-62
2022/07/13 00:55:48;;;;;;;;;;;;;;;28.92;33.71;94891.28;5005560;28;7319;-62
2022/07/13 00:58:14;;;;;;;;;;;;;;;28.90;33.63;94886.28;4978056;28;9181;-62
2022/07/13 01:00:58;;;;;;;;;;;;;;;28.91;33.42;94887.75;5003642;28;6994;-62
2022/07/13 01:03:30;;;;;;;;;;;;;;;28.90;33.95;94889.03;4990361;28;7631;-62
2022/07/13 01:06:10;;;;;;;;;;;;;;;28.89;33.98;94878.47;5005268;28;7102;-62
2022/07/13 01:08:36;;;;;;;;;;;;;;;28.88;33.62;94885.28;5008066;28;7190;-62
2022/07/13 01:11:15;;;;;;;;;;;;;;;28.88;33.62;94894.31;5007322;28;8267;-62
2022/07/13 01:13:45;;;;;;;;;;;;;;;28.88;34.13;94888.06;4998449;28;9059;-62
2022/07/13 01:16:12;;;;;;;;;;;;;;;28.88;33.91;94890.81;5001747;28;7673;-62
2022/07/13 01:19:12;;;;;;;;;;;;;;;28.87;33.86;94881.75;5009141;28;7067;-62
2022/07/13 01:21:45;;;;;;;;;;;;;;;28.86;33.72;94880.25;5009184;28;9426;-62
2022/07/13 01:24:12;;;;;;;;;;;;;;;28.86;33.98;94888.56;5009257;28;8385;-62
2022/07/13 01:26:41;;;;;;;;;;;;;;;28.84;34.23;94882.78;5012212;28;7238;-62
2022/07/13 01:29:07;;;;;;;;;;;;;;;28.84;33.75;94880.03;5005969;28;8489;-62
2022/07/13 01:31:38;;;;;;;;;;;;;;;28.85;34.14;94891.84;4998926;28;9009;-62
2022/07/13 01:34:06;;;;;;;;;;;;;;;28.82;34.07;94890.88;5013832;28;9227;-62
2022/07/13 01:36:51;;;;;;;;;;;;;;;28.84;33.79;94888.31;4992159;28;6972;-62
2022/07/13 01:39:21;;;;;;;;;;;;;;;28.83;33.72;94886.09;4992268;28;7481;-62
2022/07/13 01:41:55;;;;;;;;;;;;;;;28.84;33.81;94887.59;5011430;28;6996;-62
2022/07/13 01:44:24;;;;;;;;;;;;;;;28.82;33.81;94879.78;5002561;28;7330;-62
2022/07/13 01:46:55;;;;;;;;;;;;;;;28.83;33.80;94875.78;4994106;28;9013;-62
2022/07/13 01:49:21;;;;;;;;;;;;;;;28.83;33.70;94873.00;5013729;28;8067;-62
2022/07/13 01:51:46;;;;;;;;;;;;;;;28.83;34.10;94877.78;4996260;28;6980;-62
2022/07/13 01:54:15;;;;;;;;;;;;;;;28.82;33.95;94876.28;5008791;28;7269;-62
2022/07/13 01:57:18;;;;;;;;;;;;;;;28.81;33.75;94874.78;4991596;28;9551;-62
2022/07/13 01:59:57;;;;;;;;;;;;;;;28.80;33.90;94870.50;4931977;28;7001;-62
2022/07/13 02:02:38;;;;;;;;;;;;;;;28.80;34.07;94871.25;4927839;28;7029;-62
2022/07/13 02:05:15;;;;;;;;;;;;;;;28.78;34.17;94867.50;4931248;28;7200;-62
2022/07/13 02:07:55;;;;;;;;;;;;;;;28.78;34.19;94868.28;4948776;28;8730;-62
2022/07/13 02:10:37;;;;;;;;;;;;;;;28.79;34.08;94867.00;4935871;28;9151;-62
2022/07/13 02:13:05;;;;;;;;;;;;;;;28.76;34.19;94864.50;4936623;28;7066;-62
2022/07/13 02:15:33;;;;;;;;;;;;;;;28.77;34.29;94861.25;4933573;29;7234;-62
2022/07/13 02:18:01;;;;;;;;;;;;;;;28.76;34.09;94870.81;4937087;28;7121;-62
2022/07/13 02:20:27;;;;;;;;;;;;;;;28.76;34.19;94868.03;4927662;29;7086;-62
2022/07/13 02:23:22;;;;;;;;;;;;;;;28.74;34.12;94870.59;4921435;28;7714;-62
2022/07/13 02:26:16;;;;;;;;;;;;;;;28.76;33.65;94870.06;4895643;29;9161;-62
2022/07/13 02:28:42;;;;;;;;;;;;;;;28.74;34.31;94867.81;4898498;29;7241;-62
2022/07/13 02:31:10;;;;;;;;;;;;;;;28.75;34.05;94868.56;4893443;29;7005;-62
2022/07/13 02:33:37;;;;;;;;;;;;;;;28.74;33.78;94869.81;4909475;29;7401;-62
2022/07/13 02:36:06;;;;;;;;;;;;;;;28.72;34.03;94859.28;4920687;28;9404;-62
2022/07/13 02:38:56;;;;;;;;;;;;;;;28.74;34.07;94862.28;4943241;28;9046;-62
2022/07/13 02:41:24;;;;;;;;;;;;;;;28.75;34.34;94865.81;4913389;29;7131;-62
2022/07/13 02:44:02;;;;;;;;;;;;;;;28.74;34.11;94867.81;4940503;28;6982;-62
2022/07/13 02:47:02;;;;;;;;;;;;;;;28.73;34.09;94862.81;4933789;28;8983;-62
2022/07/13 02:50:00;;;;;;;;;;;;;;;28.72;33.98;94862.06;4859494;29;7290;-62
2022/07/13 02:52:31;;;;;;;;;;;;;;;28.74;34.00;94862.28;4854165;29;7117;-62
2022/07/13 02:55:07;;;;;;;;;;;;;;;28.73;34.05;94860.03;4856533;29;7102;-62
2022/07/13 02:57:33;;;;;;;;;;;;;;;28.72;33.99;94864.81;4870076;29;8464;-62
2022/07/13 02:59:59;;;;;;;;;;;;;;;28.74;33.81;94862.28;4862305;29;7226;-62
2022/07/13 03:02:44;;;;;;;;;;;;;;;28.72;33.91;94864.81;4896874;29;7083;-62
2022/07/13 03:05:23;;;;;;;;;;;;;;;28.72;33.91;94861.28;4897208;29;8127;-62
2022/07/13 03:07:50;;;;;;;;;;;;;;;28.69;33.68;94852.00;4910043;29;7696;-62
2022/07/13 03:10:18;;;;;;;;;;;;;;;28.70;33.99;94856.28;4897729;29;9318;-62
2022/07/13 03:12:55;;;;;;;;;;;;;;;28.71;33.72;94862.56;4923838;29;8285;-62
2022/07/13 03:15:34;;;;;;;;;;;;;;;28.70;34.15;94852.75;4900744;29;8614;-62
2022/07/13 03:18:03;;;;;;;;;;;;;;;28.69;34.08;94845.72;4914078;29;9062;-62
2022/07/13 03:20:41;;;;;;;;;;;;;;;28.69;33.97;94843.69;4897955;29;9471;-62
2022/07/13 03:23:08;;;;;;;;;;;;;;;28.69;33.83;94849.25;4912415;29;8698;-62
2022/07/13 03:25:34;;;;;;;;;;;;;;;28.68;34.10;94842.22;4960887;28;9079;-61
2022/07/13 03:28:00;;;;;;;;;;;;;;;28.68;34.18;94842.22;4979667;28;8421;-61
2022/07/13 03:30:26;;;;;;;;;;;;;;;28.67;34.07;94831.66;4975994;28;7205;-61
2022/07/13 03:32:52;;;;;;;;;;;;;;;28.68;34.19;94833.16;4991683;28;8114;-61
2022/07/13 03:35:18;;;;;;;;;;;;;;;28.67;34.22;94835.16;4994553;28;9127;-61
2022/07/13 03:37:44;;;;;;;;;;;;;;;28.66;34.00;94832.94;4983561;28;6998;-61
2022/07/13 03:40:10;;;;;;;;;;;;;;;28.66;33.87;94835.69;4989376;28;9319;-61
2022/07/13 03:42:39;;;;;;;;;;;;;;;28.65;34.38;94826.63;4979596;28;9162;-61
2022/07/13 03:45:06;;;;;;;;;;;;;;;28.63;33.97;94826.41;5000520;28;7548;-62
2022/07/13 03:47:37;;;;;;;;;;;;;;;28.64;34.16;94827.16;4998219;28;7261;-62
2022/07/13 03:50:04;;;;;;;;;;;;;;;28.64;34.08;94833.47;5005135;28;7021;-61
2022/07/13 03:52:49;;;;;;;;;;;;;;;28.66;34.18;94838.47;4990670;28;9072;-61
2022/07/13 03:55:15;;;;;;;;;;;;;;;28.66;34.09;94841.25;4994925;28;8783;-61
2022/07/13 03:57:47;;;;;;;;;;;;;;;28.65;34.30;94834.94;4992912;28;7267;-61
2022/07/13 04:00:16;;;;;;;;;;;;;;;28.64;33.81;94829.94;4988433;28;6983;-61
2022/07/13 04:02:45;;;;;;;;;;;;;;;28.65;33.99;94825.88;4999873;28;7309;-61
2022/07/13 04:05:11;;;;;;;;;;;;;;;28.64;34.15;94836.22;5003873;28;7229;-62
2022/07/13 04:07:47;;;;;;;;;;;;;;;28.63;34.00;94825.66;5003448;28;7296;-61
2022/07/13 04:10:23;;;;;;;;;;;;;;;28.63;34.01;94836.72;4993858;28;7419;-61
2022/07/13 04:12:50;;;;;;;;;;;;;;;28.63;34.28;94834.72;5002114;28;7472;-61
2022/07/13 04:15:16;;;;;;;;;;;;;;;28.63;34.23;94834.72;5010543;28;7336;-62
2022/07/13 04:18:02;;;;;;;;;;;;;;;28.64;34.08;94830.69;4997464;28;8798;-61
2022/07/13 04:20:30;;;;;;;;;;;;;;;28.63;33.89;94831.94;5005879;28;7196;-62
2022/07/13 04:23:08;;;;;;;;;;;;;;;28.63;34.06;94831.19;5008942;28;9272;-61
2022/07/13 04:25:41;;;;;;;;;;;;;;;28.63;34.34;94831.19;4983988;28;7402;-61
2022/07/13 04:28:07;;;;;;;;;;;;;;;28.63;34.26;94823.66;4987712;28;8812;-61
2022/07/13 04:30:33;;;;;;;;;;;;;;;28.61;33.98;94826.19;4998878;28;7214;-61
2022/07/13 04:32:59;;;;;;;;;;;;;;;28.62;34.52;94827.69;4989571;28;7177;-62
2022/07/13 04:35:24;;;;;;;;;;;;;;;28.63;33.78;94826.41;4993686;28;8121;-61
2022/07/13 04:37:53;;;;;;;;;;;;;;;28.59;34.22;94814.88;4982253;28;7461;-61
2022/07/13 04:40:20;;;;;;;;;;;;;;;28.60;33.95;94819.13;4992851;28;7289;-61
2022/07/13 04:42:45;;;;;;;;;;;;;;;28.61;34.41;94820.66;4984578;28;7114;-61
2022/07/13 04:45:18;;;;;;;;;;;;;;;28.59;34.34;94823.19;4984901;28;7167;-61
2022/07/13 04:47:45;;;;;;;;;;;;;;;28.61;34.16;94817.88;4991918;28;7256;-61
2022/07/13 04:50:25;;;;;;;;;;;;;;;28.59;35.13;94819.66;4986384;28;7081;-62
2022/07/13 04:52:51;;;;;;;;;;;;;;;28.57;34.21;94811.91;4988698;28;7876;-61
2022/07/13 04:55:22;;;;;;;;;;;;;;;28.59;34.44;94817.66;4983179;28;7204;-61
2022/07/13 04:58:14;;;;;;;;;;;;;;;28.61;34.22;94808.81;4994356;28;9460;-61
2022/07/13 05:01:00;;;;;;;;;;;;;;;28.61;34.52;94811.59;4929384;29;8047;-61
2022/07/13 05:03:29;;;;;;;;;;;;;;;28.60;34.41;94810.84;4953958;28;7240;-61
2022/07/13 05:06:00;;;;;;;;;;;;;;;28.62;34.36;94807.56;4927928;28;9491;-62
2022/07/13 05:08:27;;;;;;;;;;;;;;;28.61;34.49;94808.81;4938009;28;9350;-62
2022/07/13 05:11:04;;;;;;;;;;;;;;;28.62;34.48;94811.09;4950169;28;9421;-62
2022/07/13 05:13:37;;;;;;;;;;;;;;;28.62;34.46;94805.56;4953485;28;9451;-62
2022/07/13 05:16:06;;;;;;;;;;;;;;;28.61;34.27;94804.03;4935711;28;7189;-62
2022/07/13 05:19:01;;;;;;;;;;;;;;;28.62;34.13;94813.84;4933829;28;7949;-62
2022/07/13 05:21:27;;;;;;;;;;;;;;;28.61;34.27;94809.59;4934617;28;6996;-62
2022/07/13 05:23:53;;;;;;;;;;;;;;;28.62;34.13;94819.41;4953561;28;9158;-62
2022/07/13 05:26:25;;;;;;;;;;;;;;;28.58;34.03;94813.38;4935990;28;7236;-61
2022/07/13 05:28:51;;;;;;;;;;;;;;;28.58;33.92;94815.41;4932830;28;8778;-62
2022/07/13 05:31:17;;;;;;;;;;;;;;;28.55;34.23;94814.41;4934904;28;9451;-61
2022/07/13 05:33:45;;;;;;;;;;;;;;;28.57;34.13;94817.44;4936366;28;7143;-61
2022/07/13 05:36:24;;;;;;;;;;;;;;;28.58;33.96;94823.72;4951284;28;7233;-61
2022/07/13 05:38:55;;;;;;;;;;;;;;;28.56;33.97;94824.19;5003635;28;9287;-61
2022/07/13 05:41:22;;;;;;;;;;;;;;;28.57;34.12;94824.94;4992146;28;7437;-61
2022/07/13 05:43:48;;;;;;;;;;;;;;;28.55;33.67;94817.19;4995397;28;7175;-62
2022/07/13 05:46:14;;;;;;;;;;;;;;;28.55;34.24;94821.97;4993416;28;8931;-61
2022/07/13 05:48:42;;;;;;;;;;;;;;;28.52;33.89;94814.69;4992125;28;7230;-61
2022/07/13 05:51:08;;;;;;;;;;;;;;;28.51;33.76;94819.50;5009949;28;6986;-61
2022/07/13 05:53:34;;;;;;;;;;;;;;;28.51;33.55;94825.03;4991090;28;8729;-62
2022/07/13 05:56:01;;;;;;;;;;;;;;;28.50;33.24;94825.53;4987456;28;7543;-62
2022/07/13 05:58:27;;;;;;;;;;;;;;;28.44;33.53;94822.84;4987890;28;7159;-61
2022/07/13 06:00:53;;;;;;;;;;;;;;;28.45;33.46;94824.31;4989454;28;7603;-62
2022/07/13 06:03:22;;;;;;;;;;;;;;;28.44;33.92;94822.06;5006706;28;8843;-62
2022/07/13 06:05:48;;;;;;;;;;;;;;;28.41;33.54;94818.31;4999034;28;7226;-62
2022/07/13 06:08:13;;;;;;;;;;;;;;;28.37;33.49;94820.63;5005641;28;7303;-62
2022/07/13 06:10:39;;;;;;;;;;;;;;;28.35;33.63;94825.94;5003921;28;6969;-62
2022/07/13 06:13:06;;;;;;;;;;;;;;;28.34;33.77;94821.66;5006268;28;9208;-62
2022/07/13 06:15:32;;;;;;;;;;;;;;;28.31;34.01;94823.47;4999463;28;9077;-62
2022/07/13 06:17:58;;;;;;;;;;;;;;;28.30;34.05;94821.97;4987330;28;9145;-62
2022/07/13 06:20:25;;;;;;;;;;;;;;;28.29;34.15;94823.25;5004962;28;8817;-62
2022/07/13 06:23:11;;;;;;;;;;;;;;;28.28;34.02;94824.50;4985315;28;8612;-61
2022/07/13 06:25:41;;;;;;;;;;;;;;;28.24;34.15;94826.06;4982143;28;9462;-61
2022/07/13 06:28:09;;;;;;;;;;;;;;;28.22;34.34;94825.81;5000974;28;7527;-61
2022/07/13 06:30:35;;;;;;;;;;;;;;;28.22;34.24;94825.81;5002919;28;9049;-62
2022/07/13 06:33:02;;;;;;;;;;;;;;;28.22;34.45;94823.06;4989075;28;7142;-63
2022/07/13 06:35:29;;;;;;;;;;;;;;;28.22;34.57;94831.34;4993151;28;7319;-63
2022/07/13 06:37:55;;;;;;;;;;;;;;;28.21;34.77;94822.28;5001869;28;9046;-63
2022/07/13 06:40:30;;;;;;;;;;;;;;;28.22;34.59;94814.75;5009277;28;7261;-62
2022/07/13 06:42:56;;;;;;;;;;;;;;;28.23;34.52;94821.81;5007873;28;9103;-63
2022/07/13 06:45:22;;;;;;;;;;;;;;;28.20;34.68;94825.59;4989201;28;7266;-63
2022/07/13 06:47:51;;;;;;;;;;;;;;;28.20;34.95;94826.34;4985722;28;7438;-62
2022/07/13 06:50:20;;;;;;;;;;;;;;;28.22;34.91;94820.28;4999594;28;8868;-62
2022/07/13 06:52:49;;;;;;;;;;;;;;;28.22;34.91;94821.03;4998955;28;7120;-62
2022/07/13 06:55:18;;;;;;;;;;;;;;;28.22;34.68;94812.00;4998178;28;7194;-62
2022/07/13 06:57:47;;;;;;;;;;;;;;;28.22;34.90;94806.47;4981496;28;7244;-62
2022/07/13 07:00:22;;;;;;;;;;;;;;;28.22;34.43;94801.69;5003222;28;7139;-62
2022/07/13 07:02:49;;;;;;;;;;;;;;;28.22;34.45;94800.94;4996634;28;8717;-62
2022/07/13 07:05:15;;;;;;;;;;;;;;;28.21;34.63;94800.16;4990988;28;7258;-62
2022/07/13 07:07:50;;;;;;;;;;;;;;;28.23;34.75;94813.50;4999699;28;6968;-62
2022/07/13 07:10:18;;;;;;;;;;;;;;;28.22;34.54;94817.53;5010347;28;9419;-62
2022/07/13 07:12:45;;;;;;;;;;;;;;;28.20;33.51;94820.06;4995650;28;8789;-62
2022/07/13 07:15:37;;;;;;;;;;;;;;;28.20;34.35;94820.06;4989993;28;7237;-62
2022/07/13 07:18:06;;;;;;;;;;;;;;;28.21;34.61;94810.47;4943507;28;9156;-61
2022/07/13 07:20:33;;;;;;;;;;;;;;;28.20;34.46;94820.06;4945006;28;7631;-62
2022/07/13 07:23:00;;;;;;;;;;;;;;;28.22;34.23;94817.53;4925328;29;7272;-62
2022/07/13 07:25:27;;;;;;;;;;;;;;;28.22;34.37;94828.59;4945736;28;7294;-62
2022/07/13 07:27:55;;;;;;;;;;;;;;;28.23;34.39;94824.56;4933372;29;7260;-62
2022/07/13 07:30:21;;;;;;;;;;;;;;;28.25;34.40;94822.03;4896225;28;1221045;-62
2022/07/13 07:32:47;;;;;;;;;;;;;;;28.25;33.94;94828.28;4928028;28;6970;-62
2022/07/13 07:35:14;;;;;;;;;;;;;;;28.26;33.94;94834.56;4924743;28;8271;-61
2022/07/13 07:37:40;;;;;;;;;;;;;;;28.25;33.75;94830.31;4936848;28;7911;-62
2022/07/13 07:40:11;;;;;;;;;;;;;;;28.26;33.85;94823.50;4942484;28;7213;-62
2022/07/13 07:43:08;;;;;;;;;;;;;;;28.24;33.71;94824.03;4928161;28;8822;-62
2022/07/13 07:45:43;;;;;;;;;;;;;;;28.25;33.68;94827.56;4902551;29;9533;-62
2022/07/13 07:48:19;;;;;;;;;;;;;;;28.25;33.21;94830.31;4892584;29;8739;-62
2022/07/13 07:50:58;;;;;;;;;;;;;;;28.24;33.82;94835.09;4904429;29;7810;-61
2022/07/13 07:53:24;;;;;;;;;;;;;;;28.25;33.48;94841.41;4903787;29;9056;-62
2022/07/13 07:55:50;;;;;;;;;;;;;;;28.22;33.41;94845.94;4938447;28;7171;-62
2022/07/13 07:58:49;;;;;;;;;;;;;;;28.31;33.11;94831.78;4949862;28;7108;-61
2022/07/13 08:01:16;;;;;;;;;;;;;;;28.43;33.17;94837.19;4928758;29;7364;-60
2022/07/13 08:03:43;;;;;;;;;;;;;;;28.46;32.83;94833.38;4910862;29;9174;-61
2022/07/13 08:06:09;;;;;;;;;;;;;;;28.44;33.66;94844.22;4923709;29;8929;-61
2022/07/13 08:08:36;;;;;;;;;;;;;;;28.39;33.78;94834.69;4929490;29;9370;-61
2022/07/13 08:11:03;;;;;;;;;;;;;;;28.38;34.25;94841.50;4924867;29;7236;-61
2022/07/13 08:13:30;;;;;;;;;;;;;;;28.40;34.45;94830.69;4921298;29;7027;-61
2022/07/13 08:15:56;;;;;;;;;;;;;;;28.41;34.13;94834.94;4908940;29;8334;-61
2022/07/13 08:18:22;;;;;;;;;;;;;;;28.40;33.89;94832.69;4909912;29;7232;-61
2022/07/13 08:20:48;;;;;;;;;;;;;;;28.40;33.87;94835.44;4909759;28;9143;-61
2022/07/13 08:25:59;;;;;;;;;;;;;;;28.42;33.55;94836.44;4958613;28;9046;-61
2022/07/13 08:28:27;;;;;;;;;;;;;;;28.41;33.63;94834.94;4966864;28;7063;-61
2022/07/13 08:30:53;;;;;;;;;;;;;;;28.41;33.81;94840.47;4969751;28;7150;-61
2022/07/13 08:38:34;;;;;;;;;;;;;;;28.42;33.73;94835.69;4955932;28;7526;-61
2022/07/13 08:38:55;;;;;;;;;;;;;;;28.38;33.73;94836.72;5002754;28;9229;-61
2022/07/13 08:41:20;;;;;;;;;;;;;;;28.41;34.02;94848.00;4978218;28;9426;-61
2022/07/13 08:43:46;;;;;;;;;;;;;;;28.43;33.31;94853.78;4992019;28;7176;-61
2022/07/13 08:46:12;;;;;;;;;;;;;;;28.41;33.79;94859.81;4984399;28;7176;-61
2022/07/13 08:48:46;;;;;;;;;;;;;;;28.40;33.51;94850.03;5005429;28;7001;-61
2022/07/13 08:51:20;;;;;;;;;;;;;;;28.41;34.51;94856.31;4999601;28;7182;-61
2022/07/13 08:53:46;;;;;;;;;;;;;;;28.44;34.07;94861.56;4998280;28;7248;-61
2022/07/13 08:56:29;;;;;;;;;;;;;;;28.44;33.79;94861.56;5001941;28;6978;-61
2022/07/13 08:59:01;;;;;;;;;;;;;;;28.43;34.18;94860.06;4994608;28;7202;-61
2022/07/13 09:01:37;;;;;;;;;;;;;;;28.42;34.05;94861.34;4985898;28;7005;-61
2022/07/13 09:04:11;;;;;;;;;;;;;;;28.40;33.90;94857.59;4997583;28;9136;-61
2022/07/13 09:06:51;;;;;;;;;;;;;;;28.40;33.55;94857.59;4990427;28;7927;-61
2022/07/13 09:09:33;;;;;;;;;;;;;;;28.41;33.56;94846.00;4991278;28;9085;-61
2022/07/13 09:12:30;;;;;;;;;;;;;;;28.42;33.01;94853.03;4991457;28;7540;-60
2022/07/13 09:15:07;;;;;;;;;;;;;;;28.43;33.76;94862.81;4893273;29;7075;-60
2022/07/13 09:17:47;;;;;;;;;;;;;;;28.45;33.73;94851.25;4882959;29;6991;-60
2022/07/13 09:20:13;;;;;;;;;;;;;;;28.44;32.19;94860.81;4870444;29;7445;-61
2022/07/13 09:22:55;;;;;;;;;;;;;;;28.43;32.79;94857.28;4889799;29;9080;-60
2022/07/13 09:25:32;;;;;;;;;;;;;;;28.41;33.09;94850.78;4882516;29;7506;-61
2022/07/13 09:28:05;;;;;;;;;;;;;;;28.44;33.30;94864.34;4884384;29;7524;-60
2022/07/13 09:30:34;;;;;;;;;;;;;;;28.43;32.49;94871.13;4886427;29;9469;-61
2022/07/13 09:33:00;;;;;;;;;;;;;;;28.45;32.77;94876.88;4864275;29;7327;-60
2022/07/13 09:35:46;;;;;;;;;;;;;;;28.43;32.64;94873.16;4889121;29;7351;-61
2022/07/13 09:38:42;;;;;;;;;;;;;;;28.44;31.70;94882.94;4870518;29;9209;-60
2022/07/13 09:41:26;;;;;;;;;;;;;;;28.44;31.63;94883.72;4872848;29;8805;-60
2022/07/13 09:47:09;;;;;;;;;;;;;;;28.46;32.31;94875.63;4897923;29;7009;-60
2022/07/13 09:49:44;;;;;;;;;;;;;;;28.46;32.40;94870.09;4876398;29;7063;-60
2022/07/13 09:52:16;;;;;;;;;;;;;;;28.46;32.45;94878.41;4951789;28;9959;-61
2022/07/13 09:54:44;;;;;;;;;;;;;;;28.47;32.21;94876.38;4977416;28;8715;-60
2022/07/13 09:57:17;;;;;;;;;;;;;;;28.45;32.50;94876.88;4978338;28;8981;-61
2022/07/13 09:59:46;;;;;;;;;;;;;;;28.45;33.39;94873.41;4960570;28;9992;-62
2022/07/13 10:02:15;;;;;;;;;;;;;;;28.45;33.46;94882.41;4957581;28;7474;-61
2022/07/13 10:04:43;;;;;;;;;;;;;;;28.44;33.45;94869.88;4973024;28;7271;-61
2022/07/13 10:07:15;;;;;;;;;;;;;;;28.48;33.63;94875.88;4965282;28;7930;-61
2022/07/13 10:09:44;;;;;;;;;;;;;;;28.52;33.69;94870.03;4973190;28;7652;-61
2022/07/13 10:12:29;;;;;;;;;;;;;;;28.56;34.11;94874.00;4969719;28;7002;-61
2022/07/13 10:15:15;;;;;;;;;;;;;;;28.57;33.37;94874.75;4972363;28;8724;-61
2022/07/13 10:17:51;;;;;;;;;;;;;;;28.55;33.50;94874.53;4971411;28;6989;-61
2022/07/13 10:20:24;;;;;;;;;;;;;;;28.53;34.24;94877.84;4983905;28;7233;-61
2022/07/13 10:22:53;;;;;;;;;;;;;;;28.53;36.80;94872.31;4971941;28;8738;-61
2022/07/13 10:25:41;;;;;;;;;;;;;;;28.52;36.88;94878.34;5010003;28;7393;-61
2022/07/13 10:28:18;;;;;;;;;;;;;;;28.48;37.79;94878.63;4998948;28;9071;-61
2022/07/13 10:30:49;;;;;;;;;;;;;;;28.51;37.28;94877.59;4992495;28;9558;-61
2022/07/13 10:33:24;;;;;;;;;;;;;;;28.54;37.34;94881.31;5011757;28;9434;-61
2022/07/13 10:35:55;;;;;;;;;;;;;;;28.54;37.66;94879.31;4995566;28;7303;-61
2022/07/13 10:38:26;;;;;;;;;;;;;;;28.56;37.73;94879.53;5008425;28;7171;-62
2022/07/13 10:41:21;;;;;;;;;;;;;;;28.58;37.44;94882.56;4994411;28;7218;-61
2022/07/13 10:44:43;;;;;;;;;;;;;;;28.58;37.49;94877.03;5004354;28;7270;-61
2022/07/13 10:47:15;;;;;;;;;;;;;;;28.57;37.45;94874.75;4992281;28;7036;-61
2022/07/13 10:49:48;;;;;;;;;;;;;;;28.59;37.13;94875.78;4994727;28;7439;-61
2022/07/13 10:52:27;;;;;;;;;;;;;;;28.63;37.20;94875.47;4992286;28;9134;-61
2022/07/13 10:55:21;;;;;;;;;;;;;;;28.61;37.02;94875.25;5010914;28;9060;-62
2022/07/13 10:58:32;;;;;;;;;;;;;;;28.61;36.82;94873.25;4932228;28;7081;-62
2022/07/13 11:01:43;;;;;;;;;;;;;;;28.63;36.69;94872.72;4934726;28;9478;-63
2022/07/13 11:04:15;;;;;;;;;;;;;;;28.64;36.67;94865.91;4948271;28;7223;-62
2022/07/13 11:07:07;;;;;;;;;;;;;;;28.66;36.50;94868.91;4928527;28;7289;-62
2022/07/13 11:09:33;;;;;;;;;;;;;;;28.66;36.46;94864.13;4934022;28;6849;-62
2022/07/13 11:11:59;;;;;;;;;;;;;;;28.64;36.71;94863.91;4926061;28;9742;-62
2022/07/13 11:14:42;;;;;;;;;;;;;;;28.67;36.54;94862.09;4911123;29;7260;-63
2022/07/13 11:17:18;;;;;;;;;;;;;;;28.68;36.82;94875.44;4931193;28;7077;-62
2022/07/13 11:20:01;;;;;;;;;;;;;;;28.70;36.94;94861.06;4936035;28;7208;-62
2022/07/13 11:26:44;;;;;;;;;;;;;;;28.71;36.61;94859.81;4935742;28;7130;-62
2022/07/13 11:29:40;;;;;;;;;;;;;;;28.72;36.94;94858.53;4872127;29;7599;-62
2022/07/13 11:32:08;;;;;;;;;;;;;;;28.72;37.00;94853.75;4875486;29;9422;-62
2022/07/13 11:34:36;;;;;;;;;;;;;;;28.73;36.60;94849.69;4911380;28;7311;-62
2022/07/13 11:37:22;;;;;;;;;;;;;;;28.77;36.60;94863.25;4905346;29;7259;-62
2022/07/13 11:39:48;;;;;;;;;;;;;;;28.76;36.61;94858.97;4916889;29;8842;-63
2022/07/13 11:42:21;;;;;;;;;;;;;;;28.74;36.61;94851.19;4908949;29;8888;-63
2022/07/13 11:44:57;;;;;;;;;;;;;;;28.76;36.82;94862.50;4919715;28;9849;-63
2022/07/13 11:47:27;;;;;;;;;;;;;;;28.76;36.50;94851.44;4909382;28;7279;-63
2022/07/13 11:49:54;;;;;;;;;;;;;;;28.77;36.58;94852.94;4927918;28;9445;-63
2022/07/13 11:52:24;;;;;;;;;;;;;;;28.79;36.82;94858.72;4900459;29;6969;-63
2022/07/13 11:54:58;;;;;;;;;;;;;;;28.81;37.33;94849.88;4925384;28;7069;-63
2022/07/13 11:57:26;;;;;;;;;;;;;;;28.82;37.06;94848.59;4911192;29;7361;-63
2022/07/13 12:00:08;;;;;;;;;;;;;;;28.84;36.71;94855.09;4912705;28;8746;-63
2022/07/13 12:02:37;;;;;;;;;;;;;;;28.82;36.61;94851.34;4952703;28;7408;-63
2022/07/13 12:05:04;;;;;;;;;;;;;;;28.83;36.36;94858.41;5002130;28;7166;-63
2022/07/13 12:07:33;;;;;;;;;;;;;;;28.85;36.44;94845.53;4999977;28;7276;-63
2022/07/13 12:10:00;;;;;;;;;;;;;;;28.85;36.36;94840.00;5002803;28;9143;-63
2022/07/13 12:12:32;;;;;;;;;;;;;;;28.86;36.34;94835.94;4995916;28;6965;-63
2022/07/13 12:14:59;;;;;;;;;;;;;;;28.88;36.60;94832.69;4984620;28;6961;-63
2022/07/13 12:17:27;;;;;;;;;;;;;;;28.87;37.32;94828.41;4984650;28;7599;-62
2022/07/13 12:20:16;;;;;;;;;;;;;;;28.88;37.13;94825.09;4991361;28;7310;-62
2022/07/13 12:22:53;;;;;;;;;;;;;;;28.92;36.53;94827.59;4989284;28;7560;-62
2022/07/13 12:25:29;;;;;;;;;;;;;;;28.92;36.05;94828.34;5004174;28;7121;-62
2022/07/13 12:28:05;;;;;;;;;;;;;;;28.93;35.24;94827.06;4990530;28;8160;-62
2022/07/13 12:30:33;;;;;;;;;;;;;;;28.92;35.91;94825.56;4996023;28;8812;-62
2022/07/13 12:33:01;;;;;;;;;;;;;;;28.91;36.37;94826.84;5007118;28;7330;-63
2022/07/13 12:35:32;;;;;;;;;;;;;;;28.90;36.23;94819.81;4993175;28;9144;-62
2022/07/13 12:38:12;;;;;;;;;;;;;;;28.92;36.09;94820.03;4989954;28;6984;-62
2022/07/13 12:40:39;;;;;;;;;;;;;;;28.94;36.59;94819.50;5008401;28;7168;-62
2022/07/13 12:43:25;;;;;;;;;;;;;;;28.94;36.53;94817.50;4992539;28;7243;-62
2022/07/13 12:46:04;;;;;;;;;;;;;;;28.93;36.72;94813.22;5007679;28;8910;-62
2022/07/13 12:49:08;;;;;;;;;;;;;;;28.93;36.52;94818.75;4991112;28;8767;-62
2022/07/13 12:51:54;;;;;;;;;;;;;;;28.93;36.65;94813.22;4982217;28;7174;-62
2022/07/13 12:54:39;;;;;;;;;;;;;;;28.94;37.35;94809.19;4971914;28;8283;-62
2022/07/13 12:57:18;;;;;;;;;;;;;;;28.96;37.26;94814.94;4968754;28;9112;-61
2022/07/13 13:00:01;;;;;;;;;;;;;;;28.94;35.91;94819.50;4960554;28;7109;-62
2022/07/13 13:02:29;;;;;;;;;;;;;;;28.93;35.66;94813.22;4976519;28;9042;-63
2022/07/13 13:04:59;;;;;;;;;;;;;;;28.94;35.38;94814.72;4965309;28;7080;-63
2022/07/13 13:07:29;;;;;;;;;;;;;;;28.94;34.56;94814.72;4982039;28;7225;-62
2022/07/13 13:09:55;;;;;;;;;;;;;;;28.95;34.05;94809.91;4961569;28;7274;-62
2022/07/13 13:12:21;;;;;;;;;;;;;;;28.99;34.46;94811.09;4982580;28;9348;-62
2022/07/13 13:14:47;;;;;;;;;;;;;;;29.03;34.14;94810.81;4965048;28;7385;-63
2022/07/13 13:17:13;;;;;;;;;;;;;;;29.04;34.43;94807.53;4970928;28;8263;-62
2022/07/13 13:19:39;;;;;;;;;;;;;;;29.08;34.34;94809.97;4973295;28;7432;-61
2022/07/13 13:22:06;;;;;;;;;;;;;;;29.09;33.94;94803.94;4971317;28;7227;-61
2022/07/13 13:24:39;;;;;;;;;;;;;;;29.08;33.45;94807.97;4974294;28;8772;-62
2022/07/13 13:27:06;;;;;;;;;;;;;;;29.08;33.43;94807.22;4992388;28;7056;-62
2022/07/13 13:32:20;;;;;;;;;;;;;;;29.13;33.40;94800.09;5014087;28;7289;-62
2022/07/13 13:34:47;;;;;;;;;;;;;;;29.16;33.45;94790.75;5007529;28;7173;-62
2022/07/13 13:37:20;;;;;;;;;;;;;;;29.20;34.19;94791.22;4978644;28;7204;-62
2022/07/13 13:39:52;;;;;;;;;;;;;;;29.21;34.28;94787.94;5014999;28;9007;-62
2022/07/13 13:42:18;;;;;;;;;;;;;;;29.21;34.02;94787.94;4996238;28;6925;-62